Terminal Aerodrome Forecast
Issued by NWS

Home | Current Version | Previous Version | Text Only | Print | Product List | Glossary Off
Versions: 1 2 3 4 5 6 7 8 9 10 11 12 13 14 15 16 17 18 19 20 21 22 23 24 25 26

332
FTUS43 KLOT 241740
TAFDPA
TAF
KDPA 241740Z 2418/2518 21013G21KT P6SM FEW020 SCT100 BKN200
     FM241930 24014G22KT P6SM VCTS SCT025 BKN040CB
      TEMPO 2420/2422 2SM TSRA BKN025CB OVC040
     FM242200 26012G20KT P6SM SCT025
     FM250000 29008KT P6SM BKN200
     FM250600 30007KT P6SM SCT200
     FM251400 33008KT P6SM SCT250=

USA.gov is the U.S. government's official web portal to all federal, state and local government web resources and services.